createdAt,value
2017-09-07T00:01:05.313Z,2.60
2017-09-07T00:03:32.711Z,2.90
2017-09-07T00:06:00.114Z,3.20
2017-09-07T00:08:27.510Z,2.90
2017-09-07T00:10:54.902Z,4.00
2017-09-07T00:13:22.299Z,2.70
2017-09-07T00:15:49.702Z,3.90
2017-09-07T00:18:17.099Z,3.70
2017-09-07T00:20:44.503Z,4.10
2017-09-07T00:23:11.882Z,3.67
2017-09-07T00:25:39.296Z,3.97
2017-09-07T00:28:06.679Z,3.30
2017-09-07T00:30:34.170Z,3.67
2017-09-07T00:33:01.562Z,4.63
2017-09-07T00:35:28.961Z,3.73
2017-09-07T00:37:58.351Z,3.90
2017-09-07T00:40:25.847Z,4.53
2017-09-07T00:42:53.253Z,3.63
2017-09-07T00:45:20.642Z,4.60
2017-09-07T00:47:48.070Z,4.27
2017-09-07T00:50:15.458Z,4.93
2017-09-07T00:52:42.858Z,4.83
2017-09-07T00:55:10.262Z,5.07
2017-09-07T00:57:37.663Z,5.10
2017-09-07T01:00:05.065Z,5.23
2017-09-07T01:02:32.462Z,5.73
2017-09-07T01:04:59.846Z,4.83
2017-09-07T01:07:27.261Z,6.17
2017-09-07T01:09:54.642Z,5.87
2017-09-07T01:12:22.050Z,6.47
2017-09-07T01:14:49.438Z,5.30
2017-09-07T01:17:16.858Z,6.30
2017-09-07T01:19:44.335Z,6.97
2017-09-07T01:22:11.789Z,7.20
2017-09-07T01:24:39.130Z,7.30
2017-09-07T01:27:06.534Z,6.17
2017-09-07T01:29:33.936Z,6.50
2017-09-07T01:32:01.325Z,7.10
2017-09-07T01:34:28.714Z,6.50
2017-09-07T01:36:56.111Z,6.77
2017-09-07T01:39:23.499Z,6.53
2017-09-07T01:41:50.890Z,7.90
2017-09-07T01:44:18.296Z,6.03
2017-09-07T01:46:45.682Z,5.87
2017-09-07T01:49:13.086Z,5.63
2017-09-07T01:51:40.475Z,7.53
2017-09-07T01:56:35.127Z,6.80
2017-09-07T01:59:02.534Z,6.17
2017-09-07T02:01:29.969Z,7.53
2017-09-07T02:03:57.379Z,7.50
2017-09-07T02:06:24.872Z,7.63
2017-09-07T02:08:52.274Z,6.60
2017-09-07T02:11:19.674Z,6.00
2017-09-07T02:13:47.081Z,7.23
2017-09-07T02:16:14.471Z,6.87
2017-09-07T02:18:41.867Z,8.03
2017-09-07T02:21:09.277Z,6.30
2017-09-07T02:23:36.662Z,6.90
2017-09-07T02:26:04.074Z,7.80
2017-09-07T02:28:31.511Z,7.70
2017-09-07T02:30:58.875Z,6.30
2017-09-07T02:33:26.291Z,8.83
2017-09-07T02:35:53.668Z,6.10
2017-09-07T02:38:21.094Z,7.03
2017-09-07T02:40:48.490Z,8.77
2017-09-07T02:43:15.893Z,7.53
2017-09-07T02:45:43.294Z,7.00
2017-09-07T02:48:10.691Z,6.40
2017-09-07T02:50:38.091Z,7.90
2017-09-07T02:53:05.486Z,6.10
2017-09-07T02:55:32.885Z,6.50
2017-09-07T02:58:00.300Z,6.90
2017-09-07T03:00:27.702Z,7.30
2017-09-07T03:02:55.094Z,7.70
2017-09-07T03:05:22.507Z,6.60
2017-09-07T03:07:49.894Z,6.70
2017-09-07T03:10:17.302Z,6.83
2017-09-07T03:12:44.770Z,6.10
2017-09-07T03:15:12.166Z,6.10
2017-09-07T03:17:39.562Z,5.90
2017-09-07T03:20:06.958Z,7.07
2017-09-07T03:22:34.352Z,5.87
2017-09-07T03:25:01.748Z,5.93
2017-09-07T03:27:29.134Z,5.17
2017-09-07T03:29:56.530Z,5.67
2017-09-07T03:32:23.926Z,5.60
2017-09-07T03:34:51.327Z,5.60
2017-09-07T03:37:18.711Z,5.37
2017-09-07T03:39:46.102Z,6.53
2017-09-07T03:42:13.502Z,5.10
2017-09-07T03:44:40.895Z,5.53
2017-09-07T03:47:08.308Z,5.23
2017-09-07T03:49:35.690Z,5.03
2017-09-07T03:52:03.162Z,6.00
2017-09-07T03:54:30.556Z,5.10
2017-09-07T03:56:57.982Z,4.97
2017-09-07T03:59:25.378Z,5.50
2017-09-07T04:01:52.804Z,5.17
2017-09-07T04:04:20.190Z,5.83
2017-09-07T04:06:47.603Z,4.90
2017-09-07T04:09:14.991Z,4.70
2017-09-07T04:11:42.391Z,6.00
2017-09-07T04:14:09.794Z,5.60
2017-09-07T04:16:37.192Z,6.43
2017-09-07T04:19:04.586Z,4.57
2017-09-07T04:21:31.974Z,4.43
2017-09-07T04:23:59.374Z,4.67
2017-09-07T04:26:26.830Z,5.00
2017-09-07T04:28:54.214Z,5.60
2017-09-07T04:31:21.619Z,5.53
2017-09-07T04:33:49.001Z,5.30
2017-09-07T04:36:16.405Z,5.30
2017-09-07T04:38:43.843Z,5.77
2017-09-07T04:41:11.210Z,5.07
2017-09-07T04:43:38.610Z,6.47
2017-09-07T04:46:06.002Z,5.83
2017-09-07T04:48:33.411Z,6.60
2017-09-07T04:51:00.816Z,5.90
2017-09-07T04:53:28.201Z,5.53
2017-09-07T04:55:55.598Z,5.93
2017-09-07T04:58:23.062Z,5.67
2017-09-07T05:00:50.547Z,5.37
2017-09-07T05:03:17.971Z,5.07
2017-09-07T05:05:45.431Z,6.40
2017-09-07T05:08:12.851Z,5.13
2017-09-07T05:10:40.259Z,5.57
2017-09-07T05:13:07.638Z,5.73
2017-09-07T05:15:35.038Z,5.00
2017-09-07T05:18:02.425Z,6.00
2017-09-07T05:20:29.827Z,6.23
2017-09-07T05:22:57.314Z,5.90
2017-09-07T05:25:24.712Z,5.03
2017-09-07T05:27:52.122Z,5.67
2017-09-07T05:30:19.524Z,3.87
2017-09-07T05:32:46.906Z,6.50
2017-09-07T05:35:14.317Z,4.60
2017-09-07T05:37:41.711Z,5.73
2017-09-07T05:40:09.130Z,5.13
2017-09-07T05:42:36.527Z,5.97
2017-09-07T05:45:03.919Z,5.83
2017-09-07T05:47:31.328Z,4.83
2017-09-07T05:49:58.722Z,4.73
2017-09-07T05:52:26.289Z,5.83
2017-09-07T05:54:53.690Z,4.47
2017-09-07T05:57:21.070Z,4.90
2017-09-07T05:59:48.463Z,4.90
2017-09-07T06:02:15.882Z,4.67
2017-09-07T06:04:43.296Z,5.50
2017-09-07T06:07:10.706Z,5.10
2017-09-07T06:09:38.091Z,4.53
2017-09-07T06:12:05.508Z,4.80
2017-09-07T06:14:32.891Z,3.57
2017-09-07T06:17:00.295Z,4.77
2017-09-07T06:19:27.693Z,3.57
2017-09-07T06:21:55.098Z,4.10
2017-09-07T06:24:22.505Z,3.80
2017-09-07T06:26:49.890Z,4.50
2017-09-07T06:29:17.292Z,3.10
2017-09-07T06:31:44.877Z,3.80
2017-09-07T06:34:12.265Z,4.40
2017-09-07T06:36:39.691Z,4.10
2017-09-07T06:41:40.818Z,3.90
2017-09-07T06:44:08.206Z,3.80
2017-09-07T06:46:35.594Z,3.83
2017-09-07T06:49:02.986Z,4.43
2017-09-07T06:51:30.401Z,2.73
2017-09-07T06:53:57.823Z,3.40
2017-09-07T06:56:25.211Z,3.30
2017-09-07T06:58:52.610Z,3.77
2017-09-07T07:01:19.995Z,3.60
2017-09-07T07:03:47.390Z,3.20
2017-09-07T07:06:14.774Z,3.27
2017-09-07T07:08:42.162Z,2.60
2017-09-07T07:11:09.547Z,2.93
2017-09-07T07:13:36.954Z,3.27
2017-09-07T07:16:04.376Z,2.90
2017-09-07T07:18:31.836Z,2.10
2017-09-07T07:20:59.259Z,2.63
2017-09-07T07:23:26.661Z,3.07
2017-09-07T07:25:54.042Z,3.13
2017-09-07T07:28:21.498Z,2.40
2017-09-07T07:30:48.961Z,2.70
2017-09-07T07:33:16.346Z,2.17
2017-09-07T07:35:43.739Z,2.97
2017-09-07T07:38:11.144Z,2.20
2017-09-07T07:40:38.555Z,3.10
2017-09-07T07:43:05.942Z,2.70
2017-09-07T07:45:33.326Z,2.33
2017-09-07T07:48:00.732Z,2.10
2017-09-07T07:50:28.121Z,3.00
2017-09-07T07:52:55.521Z,2.37
2017-09-07T07:55:22.923Z,2.50
2017-09-07T07:57:50.302Z,2.60
2017-09-07T08:00:17.694Z,2.40
2017-09-07T08:02:45.087Z,3.00
2017-09-07T08:05:12.478Z,2.70
2017-09-07T08:07:39.863Z,2.93
2017-09-07T08:10:07.255Z,2.87
2017-09-07T08:12:34.634Z,2.37
2017-09-07T08:15:02.029Z,1.90
2017-09-07T08:17:29.523Z,2.27
2017-09-07T08:19:56.929Z,2.20
2017-09-07T08:22:24.303Z,2.27
2017-09-07T08:24:51.722Z,2.60
2017-09-07T08:27:19.105Z,2.90
2017-09-07T08:29:46.494Z,2.43
2017-09-07T08:32:13.883Z,2.03
2017-09-07T08:34:41.283Z,2.20
2017-09-07T08:37:08.760Z,2.97
2017-09-07T08:39:36.214Z,2.83
2017-09-07T08:42:03.616Z,2.80
2017-09-07T08:44:31.013Z,3.50
2017-09-07T08:46:58.402Z,2.77
2017-09-07T08:49:25.792Z,3.10
2017-09-07T08:51:53.183Z,3.47
2017-09-07T08:54:20.650Z,2.73
2017-09-07T08:56:48.042Z,3.27
2017-09-07T08:59:15.451Z,4.17
2017-09-07T09:01:42.836Z,2.90
2017-09-07T09:04:10.238Z,3.57
2017-09-07T09:06:37.635Z,3.40
2017-09-07T09:09:05.037Z,3.70
2017-09-07T09:11:32.437Z,3.87
2017-09-07T09:13:59.819Z,3.40
2017-09-07T09:16:27.262Z,3.77
2017-09-07T09:18:54.642Z,3.37
2017-09-07T09:21:22.038Z,3.70
2017-09-07T09:23:49.433Z,3.37
2017-09-07T09:26:16.838Z,2.90
2017-09-07T09:28:44.249Z,3.40
2017-09-07T09:31:11.639Z,3.53
2017-09-07T09:33:39.038Z,3.67
2017-09-07T09:36:06.504Z,3.80
2017-09-07T09:41:25.587Z,3.80
2017-09-07T09:43:52.975Z,3.20
2017-09-07T09:46:20.359Z,3.50
2017-09-07T09:48:47.846Z,3.50
2017-09-07T09:51:15.239Z,4.17
2017-09-07T09:53:42.635Z,4.13
2017-09-07T09:56:10.026Z,5.10
2017-09-07T09:58:37.423Z,4.53
2017-09-07T10:01:04.847Z,3.43
2017-09-07T10:03:32.255Z,3.57
2017-09-07T10:05:59.636Z,3.30
2017-09-07T10:08:27.103Z,3.97
2017-09-07T10:10:54.486Z,3.23
2017-09-07T10:13:21.890Z,3.80
2017-09-07T10:15:49.284Z,2.70
2017-09-07T10:18:16.659Z,3.60
2017-09-07T10:20:44.047Z,3.20
2017-09-07T10:23:11.556Z,3.50
2017-09-07T10:25:38.959Z,3.17
2017-09-07T10:28:06.358Z,3.50
2017-09-07T10:30:33.743Z,3.20
2017-09-07T10:33:01.142Z,3.80
2017-09-07T10:35:28.614Z,3.17
2017-09-07T10:37:56.007Z,3.20
2017-09-07T10:40:23.395Z,2.87
2017-09-07T10:42:50.799Z,2.90
2017-09-07T10:45:18.183Z,3.10
2017-09-07T10:47:45.563Z,2.73
2017-09-07T10:50:12.970Z,3.03
2017-09-07T10:52:40.359Z,2.00
2017-09-07T10:55:07.765Z,2.87
2017-09-07T10:57:35.147Z,3.07
2017-09-07T11:00:02.590Z,2.60
2017-09-07T11:02:29.981Z,2.33
2017-09-07T11:04:57.366Z,2.60
2017-09-07T11:07:24.765Z,2.63
2017-09-07T11:09:52.202Z,2.73
2017-09-07T11:12:19.583Z,2.90
2017-09-07T11:14:46.979Z,2.07
2017-09-07T11:17:14.467Z,3.00
2017-09-07T11:19:41.866Z,2.20
2017-09-07T11:22:09.270Z,2.60
2017-09-07T11:24:36.675Z,2.33
2017-09-07T11:27:04.063Z,3.10
2017-09-07T11:29:31.460Z,2.87
2017-09-07T11:31:58.851Z,2.70
2017-09-07T11:34:26.246Z,2.90
2017-09-07T11:36:53.733Z,3.77
2017-09-07T11:39:21.122Z,3.27
2017-09-07T11:41:48.524Z,3.17
2017-09-07T11:44:15.911Z,2.73
2017-09-07T11:46:43.311Z,2.77
2017-09-07T11:49:10.701Z,2.43
2017-09-07T11:51:38.082Z,2.70
2017-09-07T11:54:05.486Z,3.83
2017-09-07T11:56:32.880Z,3.07
2017-09-07T11:59:00.281Z,3.23
2017-09-07T12:01:27.732Z,2.43
2017-09-07T12:03:55.111Z,3.00
2017-09-07T12:06:22.504Z,2.60
2017-09-07T12:08:49.903Z,3.43
2017-09-07T12:11:17.311Z,3.33
2017-09-07T12:13:44.700Z,2.77
2017-09-07T12:16:12.115Z,2.93
2017-09-07T12:18:39.520Z,2.80
2017-09-07T12:21:06.904Z,2.63
2017-09-07T12:23:34.393Z,2.73
2017-09-07T12:26:01.770Z,2.80
2017-09-07T12:28:29.166Z,3.00
2017-09-07T12:30:56.567Z,2.57
2017-09-07T12:33:23.963Z,2.20
2017-09-07T12:35:51.350Z,2.70
2017-09-07T12:38:18.741Z,2.57
2017-09-07T12:40:46.135Z,2.70
2017-09-07T12:43:13.535Z,2.60
2017-09-07T12:45:40.928Z,3.17
2017-09-07T12:48:08.334Z,2.50
2017-09-07T12:50:35.786Z,3.33
2017-09-07T12:53:03.252Z,3.03
2017-09-07T12:55:30.635Z,3.80
2017-09-07T12:57:58.048Z,3.50
2017-09-07T13:00:25.515Z,2.77
2017-09-07T13:02:52.907Z,2.80
2017-09-07T13:05:20.314Z,3.37
2017-09-07T13:07:47.711Z,2.47
2017-09-07T13:10:15.263Z,2.87
2017-09-07T13:12:42.699Z,2.60
2017-09-07T13:15:10.078Z,2.90
2017-09-07T13:17:37.501Z,2.73
2017-09-07T13:20:05.070Z,2.47
2017-09-07T13:22:32.503Z,2.33
2017-09-07T13:24:59.852Z,2.73
2017-09-07T13:27:27.334Z,2.50
2017-09-07T13:29:54.719Z,2.93
2017-09-07T13:32:22.127Z,3.40
2017-09-07T13:34:49.547Z,3.20
2017-09-07T13:37:16.935Z,3.47
2017-09-07T13:39:44.339Z,4.00
2017-09-07T13:42:11.734Z,4.73
2017-09-07T13:44:39.140Z,3.40
2017-09-07T13:47:06.530Z,4.50
2017-09-07T13:49:33.948Z,4.63
2017-09-07T13:52:01.366Z,4.43
2017-09-07T13:54:28.754Z,5.80
2017-09-07T13:56:56.150Z,5.60
2017-09-07T13:59:23.560Z,4.07
2017-09-07T14:01:51.064Z,4.97
2017-09-07T14:04:18.430Z,4.30
2017-09-07T14:06:45.834Z,3.80
2017-09-07T14:09:13.222Z,3.47
2017-09-07T14:11:40.611Z,3.60
2017-09-07T14:14:07.998Z,4.37
2017-09-07T14:16:35.455Z,3.57
2017-09-07T14:19:02.914Z,2.87
2017-09-07T14:21:30.304Z,2.90
2017-09-07T14:23:57.690Z,3.20
2017-09-07T14:26:25.076Z,2.90
2017-09-07T14:28:52.543Z,2.73
2017-09-07T14:31:19.944Z,3.43
2017-09-07T14:33:47.347Z,2.20
2017-09-07T14:36:14.783Z,2.90
2017-09-07T14:38:42.203Z,2.60
2017-09-07T14:41:09.595Z,2.70
2017-09-07T14:43:36.986Z,3.13
2017-09-07T14:46:04.423Z,3.70
2017-09-07T14:48:31.899Z,2.83
2017-09-07T14:50:59.282Z,2.70
2017-09-07T14:53:26.674Z,3.57
2017-09-07T14:55:54.067Z,2.93
2017-09-07T14:58:21.475Z,3.13
2017-09-07T15:00:48.882Z,3.07
2017-09-07T15:03:16.284Z,3.30
2017-09-07T15:05:43.671Z,3.00
2017-09-07T15:08:11.082Z,2.50
2017-09-07T15:10:38.466Z,3.53
2017-09-07T15:13:05.863Z,2.70
2017-09-07T15:15:33.302Z,2.60
2017-09-07T15:18:00.687Z,2.17
2017-09-07T15:20:28.095Z,2.93
2017-09-07T15:22:55.496Z,2.80
2017-09-07T15:25:22.890Z,1.90
2017-09-07T15:27:50.276Z,2.50
2017-09-07T15:30:17.735Z,2.47
2017-09-07T15:32:45.123Z,2.50
2017-09-07T15:35:12.514Z,2.00
2017-09-07T15:37:39.918Z,2.80
2017-09-07T15:40:07.310Z,1.53
2017-09-07T15:42:34.712Z,2.33
2017-09-07T15:45:02.128Z,2.10
2017-09-07T15:47:29.572Z,2.37
2017-09-07T15:49:56.971Z,2.30
2017-09-07T15:52:24.375Z,2.20
2017-09-07T15:54:51.765Z,2.77
2017-09-07T15:57:19.171Z,3.00
2017-09-07T15:59:46.569Z,2.73
2017-09-07T16:02:14.021Z,2.63
2017-09-07T16:04:41.418Z,2.57
2017-09-07T16:07:08.825Z,2.50
2017-09-07T16:09:36.292Z,2.23
2017-09-07T16:12:03.696Z,3.27
2017-09-07T16:14:31.079Z,2.37
2017-09-07T16:16:58.469Z,3.10
2017-09-07T16:19:25.859Z,2.47
2017-09-07T16:21:53.258Z,2.30
2017-09-07T16:24:20.647Z,2.60
2017-09-07T16:26:48.042Z,2.90
2017-09-07T16:29:15.474Z,3.40
2017-09-07T16:31:42.930Z,3.07
2017-09-07T16:34:10.322Z,3.27
2017-09-07T16:36:37.711Z,2.83
2017-09-07T16:39:05.102Z,2.80
2017-09-07T16:41:32.499Z,2.77
2017-09-07T16:43:59.907Z,5.17
2017-09-07T16:46:27.294Z,3.87
2017-09-07T16:48:54.692Z,3.70
2017-09-07T16:51:22.075Z,3.93
2017-09-07T16:53:49.470Z,4.70
2017-09-07T16:56:16.850Z,4.20
2017-09-07T16:58:44.275Z,3.40
2017-09-07T17:01:11.698Z,2.95
2017-09-07T17:03:39.095Z,3.00
2017-09-07T17:06:06.478Z,3.30
2017-09-07T17:08:35.875Z,2.70
2017-09-07T17:11:03.262Z,2.90
2017-09-07T17:13:30.659Z,2.93
2017-09-07T17:15:58.042Z,3.23
2017-09-07T17:18:25.542Z,3.17
2017-09-07T17:20:52.962Z,3.43
2017-09-07T17:23:20.350Z,2.50
2017-09-07T17:25:47.743Z,2.33
2017-09-07T17:28:16.196Z,3.40
2017-09-07T17:30:43.586Z,3.40
2017-09-07T17:33:10.978Z,2.67
2017-09-07T17:35:38.372Z,3.50
2017-09-07T17:38:05.754Z,3.50
2017-09-07T17:40:33.164Z,2.60
2017-09-07T17:43:00.546Z,3.80
2017-09-07T17:45:27.975Z,3.57
2017-09-07T17:47:55.368Z,3.90
2017-09-07T17:50:22.767Z,4.10
2017-09-07T17:52:50.151Z,5.10
2017-09-07T17:55:17.551Z,3.93
2017-09-07T17:57:44.931Z,4.80
2017-09-07T18:00:12.351Z,4.00
2017-09-07T18:02:39.767Z,3.70
2017-09-07T18:05:07.206Z,4.20
2017-09-07T18:07:34.595Z,5.77
2017-09-07T18:10:01.984Z,4.70
2017-09-07T18:12:29.378Z,4.83
2017-09-07T18:14:56.783Z,4.17
2017-09-07T18:17:24.175Z,4.10
2017-09-07T18:19:51.584Z,4.63
2017-09-07T18:22:18.979Z,3.87
2017-09-07T18:24:46.395Z,4.87
2017-09-07T18:27:13.791Z,6.53
2017-09-07T18:29:41.176Z,4.57
2017-09-07T18:32:10.468Z,5.20
2017-09-07T18:34:37.935Z,4.20
2017-09-07T18:37:05.326Z,4.57
2017-09-07T18:39:32.720Z,4.33
2017-09-07T18:42:00.128Z,4.63
2017-09-07T18:44:27.517Z,5.90
2017-09-07T18:46:54.903Z,4.93
2017-09-07T18:49:22.391Z,5.40
2017-09-07T18:51:49.799Z,4.77
2017-09-07T18:54:17.183Z,4.93
2017-09-07T18:56:44.633Z,5.90
2017-09-07T18:59:12.031Z,5.07
2017-09-07T19:01:39.419Z,5.13
2017-09-07T19:04:06.903Z,4.80
2017-09-07T19:06:34.302Z,4.90
2017-09-07T19:09:01.798Z,4.80
2017-09-07T19:11:29.204Z,6.27
2017-09-07T19:13:56.600Z,6.17
2017-09-07T19:16:24.084Z,6.30
2017-09-07T19:18:51.474Z,6.07
2017-09-07T19:21:18.868Z,5.20
2017-09-07T19:23:46.261Z,6.17
2017-09-07T19:26:13.646Z,5.30
2017-09-07T19:28:41.056Z,6.00
2017-09-07T19:31:08.450Z,5.20
2017-09-07T19:33:35.839Z,5.13
2017-09-07T19:36:03.222Z,6.30
2017-09-07T19:38:30.619Z,5.67
2017-09-07T19:40:58.007Z,7.30
2017-09-07T19:43:25.407Z,6.63
2017-09-07T19:45:52.794Z,5.63
2017-09-07T19:48:20.198Z,4.97
2017-09-07T19:50:47.862Z,6.37
2017-09-07T19:53:15.251Z,6.50
2017-09-07T19:55:42.733Z,6.40
2017-09-07T19:58:10.128Z,6.67
2017-09-07T20:00:37.547Z,5.60
2017-09-07T20:03:04.995Z,5.80
2017-09-07T20:05:32.395Z,6.37
2017-09-07T20:07:59.774Z,5.60
2017-09-07T20:10:27.175Z,5.53
2017-09-07T20:12:54.592Z,6.53
2017-09-07T20:15:21.970Z,5.23
2017-09-07T20:17:49.362Z,5.93
2017-09-07T20:20:16.766Z,5.80
2017-09-07T20:22:44.164Z,5.70
2017-09-07T20:28:01.926Z,6.27
2017-09-07T20:30:29.323Z,6.50
2017-09-07T20:32:57.724Z,6.63
2017-09-07T20:35:25.119Z,4.90
2017-09-07T20:37:52.511Z,5.70
2017-09-07T20:40:19.915Z,5.60
2017-09-07T20:42:47.311Z,5.60
2017-09-07T20:45:14.715Z,5.87
2017-09-07T20:47:42.103Z,5.17
2017-09-07T20:50:09.495Z,5.10
2017-09-07T20:52:36.907Z,5.30
2017-09-07T20:55:04.295Z,6.20
2017-09-07T20:57:31.723Z,5.23
2017-09-07T20:59:59.115Z,6.10
2017-09-07T21:02:26.511Z,6.20
2017-09-07T21:04:53.903Z,5.73
2017-09-07T21:07:21.330Z,5.77
2017-09-07T21:09:48.730Z,5.30
2017-09-07T21:12:16.122Z,5.00
2017-09-07T21:14:43.525Z,5.33
2017-09-07T21:17:10.910Z,5.40
2017-09-07T21:19:38.302Z,5.97
2017-09-07T21:22:05.706Z,6.73
2017-09-07T21:24:33.259Z,5.37
2017-09-07T21:27:00.654Z,6.63
2017-09-07T21:29:28.067Z,6.60
2017-09-07T21:31:55.467Z,6.80
2017-09-07T21:34:22.963Z,7.37
2017-09-07T21:36:50.394Z,6.17
2017-09-07T21:39:17.785Z,8.10
2017-09-07T21:41:45.174Z,7.67
2017-09-07T21:44:12.575Z,8.70
2017-09-07T21:46:39.972Z,7.60
2017-09-07T21:49:07.384Z,6.17
2017-09-07T21:51:34.758Z,7.20
2017-09-07T21:54:02.163Z,8.10
2017-09-07T21:56:29.551Z,7.27
2017-09-07T21:58:57.020Z,6.60
2017-09-07T22:01:24.411Z,8.37
2017-09-07T22:03:51.827Z,10.30
2017-09-07T22:06:19.219Z,8.77
2017-09-07T22:08:46.618Z,8.40
2017-09-07T22:11:14.015Z,9.40
2017-09-07T22:13:41.420Z,9.10
2017-09-07T22:16:08.803Z,9.93
2017-09-07T22:18:36.206Z,10.13
2017-09-07T22:21:03.619Z,10.00
2017-09-07T22:23:31.075Z,9.90
2017-09-07T22:25:58.503Z,10.80
2017-09-07T22:28:25.907Z,9.73
2017-09-07T22:30:53.306Z,11.07
2017-09-07T22:33:20.691Z,9.50
2017-09-07T22:35:48.091Z,9.13
2017-09-07T22:38:15.507Z,8.83
2017-09-07T22:40:42.971Z,11.67
2017-09-07T22:43:10.377Z,10.60
2017-09-07T22:45:37.774Z,8.60
2017-09-07T22:48:05.167Z,9.20
2017-09-07T22:50:32.597Z,10.93
2017-09-07T22:53:00.039Z,9.63
2017-09-07T22:55:27.451Z,10.67
2017-09-07T22:57:54.848Z,9.90
2017-09-07T23:00:22.251Z,10.60
2017-09-07T23:02:49.656Z,10.30
2017-09-07T23:05:17.051Z,9.40
2017-09-07T23:07:44.452Z,10.60
2017-09-07T23:10:11.874Z,11.47
2017-09-07T23:12:39.266Z,10.30
2017-09-07T23:15:06.674Z,11.43
2017-09-07T23:17:34.067Z,11.67
2017-09-07T23:20:01.475Z,10.37
2017-09-07T23:22:28.872Z,11.43
2017-09-07T23:24:56.263Z,9.83
2017-09-07T23:27:23.662Z,11.53
2017-09-07T23:29:51.068Z,10.33
2017-09-07T23:32:18.499Z,10.73
2017-09-07T23:34:45.897Z,11.37
2017-09-07T23:37:13.299Z,11.60
2017-09-07T23:39:40.794Z,10.83
2017-09-07T23:42:08.207Z,10.00
2017-09-07T23:44:35.602Z,10.93
2017-09-07T23:47:03.087Z,10.80
2017-09-07T23:49:30.483Z,10.67
2017-09-07T23:51:57.885Z,12.53
2017-09-07T23:54:25.347Z,11.20
2017-09-07T23:56:52.739Z,11.00
2017-09-07T23:59:20.149Z,12.00
